Time;durP1;ratioP1;P1;durP2;ratioP2;P2;SDS_P1;SDS_P2;PMS_P1;PMS_P2;Temp;Humidity;BMP_temperature;BMP_pressure;BME280_temperature;BME280_humidity;BME280_pressure;Samples;Min_cycle;Max_cycle;Signal;HPM_P1;HPM_P2
2021/08/30 00:02:19;;;;;;;18.77;12.67;;;16.10;99.90;;;;;;5002702;28;20175;-76
2021/08/30 00:04:45;;;;;;;18.87;13.30;;;16.10;99.90;;;;;;5020796;28;20269;-76
2021/08/30 00:07:11;;;;;;;20.70;13.17;;;16.10;99.90;;;;;;5021202;28;20248;-76
2021/08/30 00:09:36;;;;;;;18.20;12.57;;;16.10;99.90;;;;;;5004386;28;20190;-77
2021/08/30 00:12:02;;;;;;;17.50;12.77;;;16.00;99.90;;;;;;5005280;28;20297;-76
2021/08/30 00:14:28;;;;;;;18.37;12.77;;;16.00;99.90;;;;;;5004586;28;20665;-76
2021/08/30 00:16:54;;;;;;;15.57;12.63;;;16.00;99.90;;;;;;5004874;28;20272;-76
2021/08/30 00:19:19;;;;;;;19.23;12.70;;;16.00;99.90;;;;;;5005253;28;20698;-76
2021/08/30 00:21:45;;;;;;;17.07;12.63;;;16.00;99.90;;;;;;5004994;28;20202;-76
2021/08/30 00:24:11;;;;;;;14.87;11.53;;;16.00;99.90;;;;;;5020739;28;20183;-76
2021/08/30 00:26:36;;;;;;;17.73;12.90;;;16.00;99.90;;;;;;5021566;28;20297;-76
2021/08/30 00:29:02;;;;;;;15.53;11.57;;;16.00;99.90;;;;;;5005088;28;20186;-76
2021/08/30 00:31:27;;;;;;;15.80;12.23;;;16.00;99.90;;;;;;5003830;28;20183;-76
2021/08/30 00:33:54;;;;;;;21.50;12.77;;;16.00;99.90;;;;;;5004888;28;20178;-76
2021/08/30 00:36:19;;;;;;;20.50;12.17;;;16.00;99.90;;;;;;5020945;28;20195;-76
2021/08/30 00:38:45;;;;;;;16.70;11.83;;;16.00;99.90;;;;;;5003989;28;20537;-76
2021/08/30 00:41:12;;;;;;;16.20;11.30;;;16.00;99.90;;;;;;5004425;28;20209;-76
2021/08/30 00:43:38;;;;;;;17.13;11.73;;;15.90;99.90;;;;;;5004721;28;20210;-76
2021/08/30 00:46:03;;;;;;;17.40;12.63;;;15.90;99.90;;;;;;5021028;28;20222;-76
2021/08/30 00:48:29;;;;;;;18.00;12.07;;;15.90;99.90;;;;;;5020945;28;20187;-76
2021/08/30 00:50:55;;;;;;;18.60;11.97;;;15.90;99.90;;;;;;5020714;28;20183;-76
2021/08/30 00:53:20;;;;;;;16.13;12.43;;;15.90;99.90;;;;;;5020308;28;20355;-76
2021/08/30 00:55:46;;;;;;;16.93;11.70;;;15.90;99.90;;;;;;5020423;28;20206;-76
2021/08/30 00:58:12;;;;;;;15.40;11.93;;;16.00;99.90;;;;;;5005077;28;20167;-76
2021/08/30 01:00:37;;;;;;;17.77;11.60;;;15.90;99.90;;;;;;5004471;28;20672;-76
2021/08/30 01:03:03;;;;;;;19.53;12.43;;;15.90;99.90;;;;;;5004689;28;20182;-76
2021/08/30 01:05:28;;;;;;;15.10;11.00;;;15.90;99.90;;;;;;5004043;28;20185;-76
2021/08/30 01:08:17;;;;;;;17.10;11.60;;;15.90;99.90;;;;;;5004657;28;20179;-76
2021/08/30 01:10:50;;;;;;;17.57;12.50;;;15.90;99.90;;;;;;5020044;28;20225;-76
2021/08/30 01:13:32;;;;;;;15.07;11.90;;;15.80;99.90;;;;;;5020487;28;20226;-76
2021/08/30 01:15:58;;;;;;;16.30;12.30;;;15.90;99.90;;;;;;5021451;28;20219;-76
2021/08/30 01:18:25;;;;;;;17.43;12.47;;;15.80;99.90;;;;;;5004466;28;20171;-76
2021/08/30 01:21:14;;;;;;;15.93;12.20;;;15.80;99.90;;;;;;5035541;28;20163;-76
2021/08/30 01:23:41;;;;;;;16.17;12.73;;;15.80;99.90;;;;;;5020264;28;20175;-76
2021/08/30 01:26:08;;;;;;;17.80;12.07;;;15.90;99.90;;;;;;5002886;28;20279;-76
2021/08/30 01:28:38;;;;;;;14.97;11.83;;;15.80;99.90;;;;;;5003052;28;20211;-76
2021/08/30 01:31:10;;;;;;;19.03;13.53;;;15.80;99.90;;;;;;5019414;28;20175;-76
2021/08/30 01:33:35;;;;;;;16.97;13.57;;;15.80;99.90;;;;;;5003420;28;20206;-76
2021/08/30 01:36:01;;;;;;;17.37;12.97;;;15.80;99.90;;;;;;5003451;28;20206;-76
2021/08/30 01:38:26;;;;;;;18.33;13.37;;;15.80;99.90;;;;;;5019387;28;20175;-76
2021/08/30 01:40:52;;;;;;;17.10;12.90;;;15.80;99.90;;;;;;5017866;28;20266;-76
2021/08/30 01:43:17;;;;;;;15.83;12.40;;;15.80;99.90;;;;;;5003463;28;20265;-76
2021/08/30 01:45:43;;;;;;;19.00;13.00;;;15.70;99.90;;;;;;5019833;28;20175;-76
2021/08/30 01:48:08;;;;;;;18.93;14.03;;;15.70;99.90;;;;;;5018527;28;20186;-76
2021/08/30 01:50:37;;;;;;;17.33;13.77;;;15.70;99.90;;;;;;5001836;28;20182;-76
2021/08/30 01:53:03;;;;;;;17.17;13.50;;;15.70;99.90;;;;;;5003014;28;20206;-76
2021/08/30 02:00:47;;;;;;;19.10;14.03;;;15.70;99.90;;;;;;5018482;28;20262;-76
2021/08/30 02:03:18;;;;;;;17.73;13.57;;;15.70;99.90;;;;;;5005727;28;20262;-76
2021/08/30 02:05:49;;;;;;;16.90;13.40;;;15.60;99.90;;;;;;5034836;28;20179;-76
2021/08/30 02:08:15;;;;;;;18.43;13.27;;;15.70;99.90;;;;;;5002969;28;20175;-76
2021/08/30 02:10:42;;;;;;;18.83;13.60;;;15.70;99.90;;;;;;5001593;28;20668;-76
2021/08/30 02:13:08;;;;;;;18.43;13.83;;;15.60;99.90;;;;;;5018982;28;20199;-76
2021/08/30 02:15:34;;;;;;;17.47;13.67;;;15.70;99.90;;;;;;5018368;28;20627;-76
2021/08/30 02:18:02;;;;;;;19.33;13.60;;;15.70;99.90;;;;;;5002352;28;20186;-76
2021/08/30 02:20:29;;;;;;;18.23;12.97;;;15.60;99.90;;;;;;5017685;28;20179;-76
2021/08/30 02:22:54;;;;;;;19.00;13.03;;;15.60;99.90;;;;;;5001688;28;20233;-76
2021/08/30 02:25:21;;;;;;;18.07;13.00;;;15.60;99.90;;;;;;5000498;28;20277;-76
2021/08/30 02:27:57;;;;;;;18.53;13.57;;;15.60;99.90;;;;;;5001299;28;20304;-76
2021/08/30 02:30:34;;;;;;;17.03;12.93;;;15.50;99.90;;;;;;5001122;28;20186;-76
2021/08/30 02:33:05;;;;;;;18.37;12.90;;;15.60;99.90;;;;;;5001198;28;20210;-76
2021/08/30 02:35:32;;;;;;;17.83;13.23;;;15.60;99.90;;;;;;4991152;28;20566;-76
2021/08/30 02:37:58;;;;;;;21.17;13.60;;;15.70;99.90;;;;;;4980764;28;20215;-76
2021/08/30 02:40:27;;;;;;;19.43;13.90;;;15.50;99.90;;;;;;4980659;28;20234;-76
2021/08/30 02:42:52;;;;;;;21.13;13.67;;;15.60;99.90;;;;;;4994858;28;20176;-76
2021/08/30 02:45:18;;;;;;;17.73;13.27;;;15.60;99.90;;;;;;4995117;28;20192;-76
2021/08/30 02:47:44;;;;;;;17.93;13.10;;;15.50;99.90;;;;;;4978691;28;20706;-76
2021/08/30 02:50:10;;;;;;;19.63;13.10;;;15.50;99.90;;;;;;4995046;28;20179;-76
2021/08/30 02:52:37;;;;;;;17.57;12.77;;;15.50;99.90;;;;;;4995804;28;20218;-76
2021/08/30 02:55:03;;;;;;;17.80;12.60;;;15.50;99.90;;;;;;4979201;28;20655;-76
2021/08/30 02:57:28;;;;;;;16.53;13.27;;;15.50;99.90;;;;;;4979656;28;20211;-76
2021/08/30 02:59:54;;;;;;;15.80;13.07;;;15.60;99.90;;;;;;4997988;28;20207;-76
2021/08/30 03:02:20;;;;;;;17.23;13.00;;;15.60;99.90;;;;;;4982129;28;20222;-76
2021/08/30 03:04:46;;;;;;;17.90;13.87;;;15.60;99.90;;;;;;4982362;28;20183;-76
2021/08/30 03:07:11;;;;;;;18.53;13.27;;;15.60;99.90;;;;;;4981794;28;20208;-76
2021/08/30 03:09:37;;;;;;;20.30;13.10;;;15.50;99.90;;;;;;4980939;28;20194;-76
2021/08/30 03:12:03;;;;;;;20.03;14.23;;;15.50;99.90;;;;;;4981117;28;20211;-76
2021/08/30 03:14:28;;;;;;;19.20;14.20;;;15.60;99.90;;;;;;4981682;28;20187;-76
2021/08/30 03:16:56;;;;;;;17.43;12.90;;;15.60;99.90;;;;;;4980894;28;20211;-76
2021/08/30 03:19:22;;;;;;;21.40;13.70;;;15.50;99.90;;;;;;4981261;28;20183;-76
2021/08/30 03:21:48;;;;;;;18.97;13.87;;;15.60;99.90;;;;;;4998202;28;20669;-76
2021/08/30 03:24:13;;;;;;;17.63;13.63;;;15.50;99.90;;;;;;4981520;28;20255;-76
2021/08/30 03:26:39;;;;;;;19.30;14.47;;;15.60;99.90;;;;;;4981286;28;20671;-76
2021/08/30 03:29:05;;;;;;;17.90;14.20;;;15.60;99.90;;;;;;4997469;28;20254;-76
2021/08/30 03:31:32;;;;;;;20.00;14.43;;;15.50;99.90;;;;;;4981684;28;20271;-76
2021/08/30 03:33:58;;;;;;;18.40;14.90;;;15.50;99.90;;;;;;4998054;28;20172;-76
2021/08/30 03:36:24;;;;;;;20.00;14.63;;;15.50;99.90;;;;;;4998241;28;20257;-76
2021/08/30 03:38:50;;;;;;;19.30;14.57;;;15.50;99.90;;;;;;4988744;28;20264;-75
2021/08/30 03:41:15;;;;;;;23.07;15.23;;;15.60;99.90;;;;;;4988681;28;20214;-76
2021/08/30 03:43:41;;;;;;;19.80;15.17;;;15.50;99.90;;;;;;5004626;28;20179;-76
2021/08/30 03:46:07;;;;;;;20.43;13.93;;;15.50;99.90;;;;;;5003660;28;20226;-76
2021/08/30 03:48:32;;;;;;;18.57;13.90;;;15.50;99.90;;;;;;5004348;28;20286;-76
2021/08/30 03:50:58;;;;;;;21.73;14.50;;;15.50;99.90;;;;;;5004940;28;20187;-76
2021/08/30 03:53:24;;;;;;;19.67;15.07;;;15.50;99.90;;;;;;5004105;28;20701;-76
2021/08/30 03:55:49;;;;;;;20.23;14.97;;;15.50;99.90;;;;;;5004180;28;20727;-76
2021/08/30 03:58:18;;;;;;;20.93;15.37;;;15.40;99.90;;;;;;4987316;28;20566;-76
2021/08/30 04:00:44;;;;;;;20.60;15.30;;;15.40;99.90;;;;;;4993173;28;20183;-75
2021/08/30 04:03:11;;;;;;;19.67;14.97;;;15.40;99.90;;;;;;5002943;28;20183;-76
2021/08/30 04:05:38;;;;;;;20.70;14.67;;;15.50;99.90;;;;;;5023275;28;20186;-76
2021/08/30 04:08:04;;;;;;;22.93;15.10;;;15.50;99.90;;;;;;4998508;28;20274;-77
2021/08/30 04:10:29;;;;;;;20.53;15.57;;;15.40;99.90;;;;;;5013535;28;20274;-77
2021/08/30 04:12:55;;;;;;;24.07;15.67;;;15.50;99.90;;;;;;5005446;28;20206;-77
2021/08/30 04:15:21;;;;;;;21.47;15.20;;;15.60;99.90;;;;;;5021271;28;20183;-77
2021/08/30 04:17:47;;;;;;;21.20;15.33;;;15.50;99.90;;;;;;5037223;28;20255;-77
2021/08/30 04:20:12;;;;;;;21.40;15.10;;;15.50;99.90;;;;;;5021027;28;20306;-77
2021/08/30 04:22:38;;;;;;;22.70;15.87;;;15.50;99.90;;;;;;5005883;28;20264;-79
2021/08/30 04:25:04;;;;;;;21.50;15.37;;;15.50;99.90;;;;;;5022526;28;20179;-79
2021/08/30 04:27:30;;;;;;;22.53;15.23;;;15.50;99.90;;;;;;5005620;28;20702;-78
2021/08/30 04:29:56;;;;;;;24.93;16.63;;;15.50;99.90;;;;;;5005752;28;20219;-79
2021/08/30 04:32:21;;;;;;;22.17;16.03;;;15.50;99.90;;;;;;5021446;28;20199;-79
2021/08/30 04:34:47;;;;;;;20.60;15.70;;;15.60;99.90;;;;;;5005483;28;20183;-79
2021/08/30 04:37:12;;;;;;;22.17;16.83;;;15.60;99.90;;;;;;5040175;28;20202;-79
2021/08/30 04:39:38;;;;;;;24.63;15.93;;;15.60;99.90;;;;;;5021871;28;20610;-79
2021/08/30 04:42:05;;;;;;;19.57;15.90;;;15.60;99.90;;;;;;5006046;28;20235;-80
2021/08/30 04:44:31;;;;;;;21.97;16.53;;;15.60;99.90;;;;;;5021573;28;20177;-79
2021/08/30 04:46:56;;;;;;;25.93;17.27;;;15.70;99.90;;;;;;5004983;28;20261;-79
2021/08/30 04:49:22;;;;;;;20.13;15.50;;;15.70;99.90;;;;;;5001422;28;20552;-80
2021/08/30 04:51:47;;;;;;;21.97;16.17;;;15.70;99.90;;;;;;5008309;28;20553;-80
2021/08/30 04:54:13;;;;;;;26.57;17.10;;;15.70;99.90;;;;;;4982875;28;20662;-79
2021/08/30 04:56:40;;;;;;;22.83;16.40;;;15.80;99.90;;;;;;4982709;28;20683;-79
2021/08/30 04:59:05;;;;;;;25.33;17.73;;;15.70;99.90;;;;;;4982931;28;20168;-80
2021/08/30 05:01:31;;;;;;;25.93;16.73;;;15.70;99.90;;;;;;4998899;28;20183;-80
2021/08/30 05:03:58;;;;;;;23.97;17.50;;;15.80;99.90;;;;;;4999595;28;20205;-78
2021/08/30 05:06:24;;;;;;;28.93;19.20;;;15.80;99.90;;;;;;4982078;28;20206;-79
2021/08/30 05:08:49;;;;;;;24.73;17.87;;;15.80;99.90;;;;;;4998283;28;20172;-79
2021/08/30 05:11:15;;;;;;;26.50;19.40;;;15.80;99.90;;;;;;5016307;28;20187;-77
2021/08/30 05:13:40;;;;;;;25.77;19.00;;;15.80;99.90;;;;;;4994776;28;20297;-77
2021/08/30 05:16:06;;;;;;;26.43;18.40;;;15.80;99.90;;;;;;4997486;28;20199;-76
2021/08/30 05:18:31;;;;;;;24.87;18.30;;;15.90;99.90;;;;;;5012639;28;20198;-77
2021/08/30 05:20:57;;;;;;;26.97;20.07;;;15.90;99.90;;;;;;5004736;28;20550;-77
2021/08/30 05:23:22;;;;;;;26.53;19.50;;;15.90;99.90;;;;;;4997930;28;20616;-77
2021/08/30 05:25:48;;;;;;;29.07;20.67;;;15.90;99.90;;;;;;5012481;28;20207;-80
2021/08/30 05:28:14;;;;;;;26.27;19.27;;;16.00;99.90;;;;;;5002382;28;20187;-80
2021/08/30 05:30:39;;;;;;;26.33;19.03;;;15.90;99.90;;;;;;5003775;28;20282;-77
2021/08/30 05:33:05;;;;;;;26.23;19.40;;;15.90;99.90;;;;;;5016020;28;20204;-78
2021/08/30 05:35:31;;;;;;;29.17;20.43;;;15.90;99.90;;;;;;4982131;28;20172;-76
2021/08/30 05:37:56;;;;;;;26.23;19.33;;;15.90;99.90;;;;;;4997319;28;20179;-76
2021/08/30 05:40:22;;;;;;;27.13;20.30;;;16.00;99.90;;;;;;5011615;28;20259;-76
2021/08/30 05:42:47;;;;;;;26.13;19.97;;;16.00;99.90;;;;;;5002759;28;20188;-76
2021/08/30 05:45:13;;;;;;;27.27;21.13;;;16.00;99.90;;;;;;4995740;28;20237;-76
2021/08/30 05:47:38;;;;;;;28.47;20.00;;;16.00;99.90;;;;;;4982000;28;20224;-76
2021/08/30 05:50:04;;;;;;;29.17;20.57;;;16.00;99.90;;;;;;4986590;28;20184;-76
2021/08/30 05:52:30;;;;;;;28.50;20.70;;;16.10;99.90;;;;;;4994085;28;20240;-76
2021/08/30 05:54:55;;;;;;;29.03;20.50;;;16.10;99.90;;;;;;5012635;28;20180;-76
2021/08/30 05:57:21;;;;;;;25.80;20.60;;;16.10;99.90;;;;;;5014559;28;20723;-76
2021/08/30 05:59:46;;;;;;;29.10;20.70;;;16.10;99.90;;;;;;5013234;28;20691;-80
2021/08/30 06:02:12;;;;;;;29.33;20.77;;;16.10;99.90;;;;;;4996871;28;20179;-82
2021/08/30 06:04:37;;;;;;;28.57;20.63;;;16.10;99.90;;;;;;5012919;28;20195;-77
2021/08/30 06:07:03;;;;;;;28.70;21.17;;;16.10;99.90;;;;;;4996549;28;20581;-79
2021/08/30 06:09:30;;;;;;;29.80;21.93;;;16.10;99.90;;;;;;5013217;28;20178;-78
2021/08/30 06:11:55;;;;;;;27.83;20.73;;;16.30;99.90;;;;;;4997480;28;20229;-77
2021/08/30 06:14:21;;;;;;;27.87;20.07;;;16.20;99.90;;;;;;4996923;28;20183;-77
2021/08/30 06:16:47;;;;;;;28.90;20.33;;;16.20;99.90;;;;;;5013432;28;20210;-78
2021/08/30 06:19:12;;;;;;;29.40;20.10;;;16.20;99.90;;;;;;4996570;28;20190;-78
2021/08/30 06:21:38;;;;;;;28.47;20.57;;;16.40;99.90;;;;;;5013178;28;20207;-83
2021/08/30 06:24:04;;;;;;;25.80;19.97;;;16.30;99.90;;;;;;4996911;28;20175;-79
2021/08/30 06:26:30;;;;;;;28.27;20.57;;;16.40;99.90;;;;;;4996006;28;20253;-79
2021/08/30 06:28:56;;;;;;;27.50;19.73;;;16.50;99.90;;;;;;4995842;28;20218;-80
2021/08/30 06:31:22;;;;;;;28.97;19.93;;;16.50;99.90;;;;;;5012325;28;20167;-79
2021/08/30 06:33:47;;;;;;;26.67;20.83;;;16.60;99.90;;;;;;5012098;28;20257;-79
2021/08/30 06:36:13;;;;;;;26.37;19.80;;;16.70;99.90;;;;;;4997207;28;20282;-81
2021/08/30 06:38:39;;;;;;;26.50;19.43;;;16.70;99.90;;;;;;4996167;28;20207;-79
2021/08/30 06:41:04;;;;;;;28.17;19.50;;;16.90;99.90;;;;;;5012343;28;20171;-78
2021/08/30 06:43:30;;;;;;;29.27;20.43;;;16.80;99.90;;;;;;5012640;28;20180;-79
2021/08/30 06:45:55;;;;;;;26.60;19.27;;;16.80;99.90;;;;;;4995692;28;20238;-79
2021/08/30 06:48:21;;;;;;;24.57;18.70;;;16.90;99.90;;;;;;4980737;28;20229;-80
2021/08/30 06:50:46;;;;;;;27.07;18.80;;;16.80;99.90;;;;;;4997187;28;20187;-81
2021/08/30 06:53:12;;;;;;;25.77;18.20;;;16.90;99.90;;;;;;4981500;28;20302;-82
2021/08/30 06:55:38;;;;;;;24.97;19.07;;;16.80;99.90;;;;;;4980631;28;20600;-80
2021/08/30 06:58:04;;;;;;;25.47;19.37;;;16.80;99.90;;;;;;4996051;28;20175;-80
2021/08/30 07:00:29;;;;;;;25.57;18.63;;;16.80;99.90;;;;;;4980224;28;20600;-80
2021/08/30 07:02:55;;;;;;;26.40;18.77;;;16.90;99.90;;;;;;4980663;28;20183;-81
2021/08/30 07:05:21;;;;;;;26.10;19.20;;;16.90;99.90;;;;;;4981093;28;20694;-81
2021/08/30 07:07:47;;;;;;;27.73;19.70;;;17.00;99.90;;;;;;4982815;28;20200;-81
2021/08/30 07:10:12;;;;;;;26.50;18.60;;;17.10;99.90;;;;;;4991007;23;20182;-81
2021/08/30 07:12:38;;;;;;;26.77;18.73;;;17.20;99.90;;;;;;5000013;28;20277;-82
2021/08/30 07:15:04;;;;;;;25.97;18.93;;;17.40;99.90;;;;;;5002507;28;20551;-82
2021/08/30 07:17:29;;;;;;;24.17;18.10;;;17.50;99.90;;;;;;5002840;28;20179;-82
2021/08/30 07:19:55;;;;;;;21.20;17.13;;;17.50;99.90;;;;;;5005966;28;20182;-82
2021/08/30 07:22:20;;;;;;;24.63;18.83;;;17.40;99.90;;;;;;5010039;28;20205;-82
2021/08/30 07:24:46;;;;;;;22.17;18.13;;;17.40;99.90;;;;;;5022394;28;20183;-81
2021/08/30 07:27:12;;;;;;;24.87;17.83;;;17.30;99.90;;;;;;5035746;28;20179;-80
2021/08/30 07:29:37;;;;;;;26.63;18.63;;;17.30;99.90;;;;;;5027472;28;20186;-83
2021/08/30 07:32:03;;;;;;;28.40;18.50;;;17.40;99.90;;;;;;5027886;28;20306;-80
2021/08/30 07:34:29;;;;;;;22.63;17.20;;;17.30;99.90;;;;;;5052855;28;20194;-80
2021/08/30 07:36:54;;;;;;;21.27;17.93;;;17.50;99.90;;;;;;5035260;28;20186;-82
2021/08/30 07:39:20;;;;;;;19.90;16.83;;;17.40;99.90;;;;;;5035185;28;20171;-82
2021/08/30 07:41:46;;;;;;;23.77;17.27;;;17.40;99.90;;;;;;5033555;28;20202;-82
2021/08/30 07:44:12;;;;;;;23.03;16.57;;;17.50;99.90;;;;;;5022903;28;20175;-82
2021/08/30 07:46:38;;;;;;;19.97;17.33;;;17.50;99.90;;;;;;5021437;28;20182;-82
2021/08/30 07:49:03;;;;;;;19.33;16.00;;;17.50;99.90;;;;;;5021114;28;20166;-82
2021/08/30 07:51:29;;;;;;;20.30;16.07;;;17.50;99.90;;;;;;5019877;28;20567;-82
2021/08/30 07:53:57;;;;;;;20.43;15.67;;;17.40;99.90;;;;;;5020073;28;20855;-83
2021/08/30 07:56:23;;;;;;;19.77;16.50;;;17.50;99.90;;;;;;5019965;28;20645;-82
2021/08/30 07:58:48;;;;;;;17.90;14.60;;;17.50;99.90;;;;;;5019577;28;20189;-82
2021/08/30 08:01:14;;;;;;;18.20;15.50;;;17.50;99.90;;;;;;5024053;28;20222;-83
2021/08/30 08:03:39;;;;;;;17.03;14.63;;;17.50;99.90;;;;;;5019975;28;20186;-83
2021/08/30 08:06:05;;;;;;;20.47;14.63;;;17.60;99.90;;;;;;5019084;28;20190;-83
2021/08/30 08:08:30;;;;;;;20.37;14.83;;;17.60;99.90;;;;;;5018996;28;20185;-82
2021/08/30 08:10:56;;;;;;;18.83;15.20;;;17.60;99.90;;;;;;5018232;28;20218;-83
2021/08/30 08:13:23;;;;;;;16.93;14.13;;;17.50;99.90;;;;;;5019294;28;20209;-83
2021/08/30 08:15:49;;;;;;;21.13;17.83;;;17.50;99.90;;;;;;5036163;28;20293;-82
2021/08/30 08:18:15;;;;;;;18.03;14.93;;;17.50;99.90;;;;;;5018666;28;20171;-83
2021/08/30 08:20:40;;;;;;;18.53;15.37;;;17.50;99.90;;;;;;5019048;28;20198;-82
2021/08/30 08:23:06;;;;;;;19.40;15.53;;;17.60;99.90;;;;;;5018669;28;20183;-82
2021/08/30 08:25:32;;;;;;;24.30;15.30;;;17.50;99.90;;;;;;5023192;28;20193;-83
2021/08/30 08:28:02;;;;;;;18.30;15.00;;;17.50;99.90;;;;;;5022593;28;20186;-83
2021/08/30 08:30:28;;;;;;;22.00;16.07;;;17.50;99.90;;;;;;5023001;28;20207;-82
2021/08/30 08:32:54;;;;;;;19.87;16.30;;;17.50;99.90;;;;;;5021613;28;20217;-83
2021/08/30 08:35:19;;;;;;;19.13;14.93;;;17.50;99.90;;;;;;5020590;28;20178;-82
2021/08/30 08:37:45;;;;;;;20.53;15.43;;;17.60;99.90;;;;;;5030841;28;20194;-81
2021/08/30 08:40:12;;;;;;;20.33;15.77;;;17.60;99.90;;;;;;5034193;28;20182;-80
2021/08/30 08:42:38;;;;;;;19.87;15.93;;;17.70;99.90;;;;;;5003249;28;20193;-78
2021/08/30 08:45:05;;;;;;;21.87;16.47;;;17.80;99.90;;;;;;5001530;28;20190;-78
2021/08/30 08:47:30;;;;;;;20.13;15.73;;;17.90;99.90;;;;;;5002761;28;20674;-78
2021/08/30 08:49:56;;;;;;;19.10;15.50;;;17.90;99.90;;;;;;5000357;28;20180;-77
2021/08/30 08:52:22;;;;;;;18.10;15.43;;;17.90;99.90;;;;;;5008248;28;20203;-78
2021/08/30 08:54:47;;;;;;;18.50;15.07;;;17.90;99.90;;;;;;5002281;28;20193;-79
2021/08/30 08:57:13;;;;;;;17.73;15.13;;;17.90;99.90;;;;;;5009397;28;20175;-79
2021/08/30 08:59:39;;;;;;;19.93;16.10;;;17.90;99.90;;;;;;5006929;28;20206;-79
2021/08/30 09:02:06;;;;;;;19.53;14.60;;;17.80;99.90;;;;;;5010438;28;20199;-79
2021/08/30 09:04:35;;;;;;;19.73;15.40;;;17.90;99.90;;;;;;4994662;28;20179;-79
2021/08/30 09:07:11;;;;;;;19.10;15.57;;;17.90;99.90;;;;;;5021830;28;20217;-79
2021/08/30 09:09:38;;;;;;;18.07;14.77;;;18.20;99.90;;;;;;5002460;28;20178;-79
2021/08/30 09:12:04;;;;;;;19.40;14.10;;;18.40;99.90;;;;;;4997481;28;20207;-80
2021/08/30 09:14:30;;;;;;;16.93;14.47;;;18.50;99.90;;;;;;5023254;28;20234;-78
2021/08/30 09:17:06;;;;;;;18.80;14.10;;;18.60;99.90;;;;;;5022316;28;20175;-80
2021/08/30 09:19:33;;;;;;;17.60;14.07;;;18.70;99.90;;;;;;4997845;28;20179;-80
2021/08/30 09:21:59;;;;;;;16.70;13.47;;;18.70;99.90;;;;;;4985984;28;20195;-79
2021/08/30 09:24:25;;;;;;;17.00;13.60;;;18.80;99.90;;;;;;4987326;28;20202;-81
2021/08/30 09:26:52;;;;;;;17.37;13.50;;;18.80;99.90;;;;;;4985523;28;20199;-80
2021/08/30 09:29:26;;;;;;;16.27;13.00;;;18.90;99.90;;;;;;4984684;28;20266;-79
2021/08/30 09:32:14;;;;;;;17.00;11.90;;;19.00;99.90;;;;;;4985089;28;20678;-79
2021/08/30 09:34:47;;;;;;;16.40;12.30;;;19.10;99.90;;;;;;4984996;28;20167;-79
2021/08/30 09:37:24;;;;;;;15.37;11.70;;;19.20;99.90;;;;;;5018677;28;20152;-78
2021/08/30 09:39:51;;;;;;;15.70;11.77;;;19.20;99.90;;;;;;5018436;28;20190;-78
2021/08/30 09:42:17;;;;;;;15.70;11.50;;;19.30;99.90;;;;;;5035679;28;20198;-78
2021/08/30 09:44:42;;;;;;;15.93;11.23;;;19.30;99.90;;;;;;5016598;28;20546;-79
2021/08/30 09:47:21;;;;;;;15.27;11.20;;;19.30;99.90;;;;;;5036578;28;20205;-78
2021/08/30 09:49:48;;;;;;;12.73;10.20;;;19.30;99.90;;;;;;5019770;28;20200;-77
2021/08/30 09:52:13;;;;;;;13.77;10.30;;;19.30;99.90;;;;;;5032311;28;20206;-77
2021/08/30 09:54:39;;;;;;;13.33;10.57;;;19.20;99.90;;;;;;5032344;28;20179;-77
2021/08/30 09:57:04;;;;;;;12.03;9.83;;;19.20;99.90;;;;;;5031814;28;20189;-77
2021/08/30 09:59:30;;;;;;;12.73;10.10;;;19.10;99.90;;;;;;5015498;28;20210;-77
2021/08/30 10:01:56;;;;;;;11.10;9.77;;;19.10;99.90;;;;;;5011585;28;20278;-77
2021/08/30 10:04:21;;;;;;;14.10;9.80;;;19.20;99.90;;;;;;5007417;28;20183;-76
2021/08/30 10:06:50;;;;;;;13.17;10.47;;;19.40;99.90;;;;;;5032922;28;20644;-78
2021/08/30 10:09:17;;;;;;;12.43;9.67;;;19.60;99.90;;;;;;5033568;28;20720;-79
2021/08/30 10:11:44;;;;;;;12.23;9.20;;;19.90;99.90;;;;;;5033961;28;20211;-78
2021/08/30 10:14:17;;;;;;;11.47;9.23;;;19.90;99.90;;;;;;5016430;28;20368;-78
2021/08/30 10:16:43;;;;;;;13.77;8.90;;;19.90;99.90;;;;;;5017655;28;20205;-78
2021/08/30 10:19:08;;;;;;;10.87;8.50;;;20.00;99.90;;;;;;5000860;28;20179;-79
2021/08/30 10:21:44;;;;;;;11.00;8.73;;;19.80;99.90;;;;;;5015237;28;20195;-80
2021/08/30 10:24:12;;;;;;;10.67;8.47;;;19.70;99.90;;;;;;5003259;28;20209;-80
2021/08/30 10:26:40;;;;;;;12.27;8.57;;;19.60;99.90;;;;;;5015712;28;20202;-80
2021/08/30 10:29:06;;;;;;;10.03;8.50;;;19.60;99.90;;;;;;5016022;28;20639;-80
2021/08/30 10:31:31;;;;;;;10.60;8.57;;;19.70;99.90;;;;;;5002488;28;20198;-80
2021/08/30 10:33:57;;;;;;;11.43;9.80;;;19.70;99.90;;;;;;5002827;28;20635;-80
2021/08/30 10:36:27;;;;;;;9.47;7.80;;;20.00;99.90;;;;;;5015264;28;20179;-80
2021/08/30 10:38:58;;;;;;;10.53;7.73;;;20.30;99.90;;;;;;5018213;28;20737;-80
2021/08/30 10:41:28;;;;;;;8.70;7.23;;;20.50;99.90;;;;;;5034701;28;20183;-80
2021/08/30 10:44:03;;;;;;;8.90;7.00;;;20.70;99.90;;;;;;5035568;28;20214;-80
2021/08/30 10:46:36;;;;;;;10.50;8.07;;;21.00;99.90;;;;;;5040192;28;20194;-80
2021/08/30 10:49:08;;;;;;;10.27;7.63;;;21.10;99.90;;;;;;5023265;28;20650;-78
2021/08/30 10:51:37;;;;;;;8.23;6.93;;;21.30;99.90;;;;;;5018313;28;20199;-80
2021/08/30 10:54:06;;;;;;;10.43;6.93;;;21.30;99.90;;;;;;5035712;28;20286;-80
2021/08/30 10:56:32;;;;;;;9.60;6.43;;;21.20;99.90;;;;;;5034730;28;20182;-79
2021/08/30 10:59:04;;;;;;;8.23;6.73;;;21.00;99.90;;;;;;5018192;28;20174;-80
2021/08/30 11:01:29;;;;;;;8.67;6.50;;;20.90;99.90;;;;;;5019078;28;20294;-80
2021/08/30 11:03:58;;;;;;;8.37;6.27;;;20.80;99.90;;;;;;5034372;28;20238;-80
2021/08/30 11:06:24;;;;;;;8.47;6.27;;;20.70;99.90;;;;;;5010291;28;20226;-78
2021/08/30 11:08:49;;;;;;;7.83;6.10;;;20.70;99.90;;;;;;4997418;28;20168;-80
2021/08/30 11:11:19;;;;;;;8.37;7.03;;;20.60;99.90;;;;;;5012978;28;20217;-79
2021/08/30 11:14:04;;;;;;;7.63;6.73;;;20.60;99.90;;;;;;4982097;28;20204;-80
2021/08/30 11:16:30;;;;;;;8.47;6.83;;;20.70;99.90;;;;;;5014345;28;20160;-80
2021/08/30 11:18:55;;;;;;;8.83;7.10;;;20.70;99.90;;;;;;4996974;28;20184;-79
2021/08/30 11:21:34;;;;;;;8.47;6.83;;;20.60;99.90;;;;;;5015510;28;20280;-80
2021/08/30 11:24:00;;;;;;;8.60;7.30;;;20.60;99.90;;;;;;4996722;28;20179;-81
2021/08/30 11:26:25;;;;;;;10.67;6.83;;;20.60;99.90;;;;;;4981198;28;20210;-81
2021/08/30 11:28:58;;;;;;;10.60;6.90;;;20.40;99.90;;;;;;4997022;28;20330;-80
2021/08/30 11:31:24;;;;;;;7.37;6.30;;;20.20;99.90;;;;;;4997028;28;20203;-80
2021/08/30 11:33:49;;;;;;;7.97;6.60;;;20.10;99.90;;;;;;4980994;28;20254;-83
2021/08/30 11:36:16;;;;;;;7.93;6.30;;;20.10;99.90;;;;;;4979913;28;20184;-80
2021/08/30 11:39:14;;;;;;;8.77;6.03;;;20.00;99.90;;;;;;5000599;28;20699;-80
2021/08/30 11:41:43;;;;;;;10.10;6.10;;;19.90;99.90;;;;;;5009650;28;20203;-80
2021/08/30 11:44:09;;;;;;;8.17;6.10;;;20.00;99.90;;;;;;5016112;28;20186;-80
2021/08/30 11:46:50;;;;;;;7.97;6.13;;;20.00;99.90;;;;;;5032013;28;20249;-79
2021/08/30 11:49:16;;;;;;;7.33;5.87;;;20.00;99.90;;;;;;5016078;28;20610;-80
2021/08/30 11:51:42;;;;;;;7.37;6.30;;;19.90;99.90;;;;;;5016286;28;20230;-79
2021/08/30 11:54:18;;;;;;;6.47;5.77;;;19.90;99.90;;;;;;5016073;28;20209;-80
2021/08/30 11:56:52;;;;;;;8.30;6.23;;;19.80;99.90;;;;;;4999930;28;20546;-80
2021/08/30 11:59:28;;;;;;;8.13;6.40;;;19.60;99.90;;;;;;5019263;28;20609;-80
2021/08/30 12:01:53;;;;;;;7.87;6.40;;;19.70;99.90;;;;;;5003184;28;20202;-80
2021/08/30 12:04:19;;;;;;;6.93;5.80;;;19.70;99.90;;;;;;5003693;28;20313;-80
2021/08/30 12:06:54;;;;;;;8.20;6.17;;;20.00;99.90;;;;;;5020641;28;20175;-81
2021/08/30 12:09:20;;;;;;;8.23;5.93;;;20.10;99.90;;;;;;5003894;28;20630;-78
2021/08/30 12:11:50;;;;;;;7.33;5.97;;;20.10;99.90;;;;;;5020679;28;20213;-79
2021/08/30 12:14:16;;;;;;;6.77;5.37;;;20.10;99.90;;;;;;5007889;28;20180;-80
2021/08/30 12:16:43;;;;;;;8.67;6.00;;;20.00;99.90;;;;;;4998376;28;20182;-82
2021/08/30 12:19:09;;;;;;;8.70;6.33;;;20.00;99.90;;;;;;5016689;28;20179;-82
2021/08/30 12:21:36;;;;;;;7.60;6.20;;;19.80;99.90;;;;;;5020255;28;20187;-82
2021/08/30 12:24:02;;;;;;;8.03;5.90;;;19.70;99.90;;;;;;5013946;28;20210;-81
2021/08/30 12:26:28;;;;;;;9.13;6.30;;;19.70;99.90;;;;;;4997185;28;20193;-77
2021/08/30 12:28:55;;;;;;;9.47;6.33;;;19.70;99.90;;;;;;5032466;28;20177;-77
2021/08/30 12:31:31;;;;;;;7.43;5.87;;;19.80;99.90;;;;;;5032011;28;20205;-77
2021/08/30 12:34:10;;;;;;;7.57;5.97;;;19.90;99.90;;;;;;5006352;28;20198;-77
2021/08/30 12:36:36;;;;;;;7.47;5.47;;;20.00;99.90;;;;;;5028949;28;20179;-78